首页
METAR-TAF:

METAR-TAF

机场 :

萨斯卡通约翰·乔治·迪芬贝克国际机场

萨斯卡通, 薩斯喀徹溫, 加拿大

纬度: 52-10N, 经度: 106-41W, 海拔: 501米

当前天气观测

该预报发布于25分钟前的07:00 UTC
风速5节,风向
温度 3°C
湿度 60%
气压 1024 hPa
能見度: 24.1公里
天空无云

METAR: CYXE 190700Z 09005KT 15SM SKC 03/M04 A3024 RMK SLP259

时间: 01:25 (07:25 UTC)

预报

该预报发布于1小时和47分钟前的05:38 UTC
预报有效从19日的 06点(UTC)到 20日的 06点(UTC)
风速8节,风向东转东南
能見度: 10公里
少量云层高于28000英尺
成为
从 19日的 18点(UTC)到 19日的 20点(UTC)
风速12节,风向
成为
从 20日的 03点(UTC)到 20日的 05点(UTC)
风速6节,风向东转东南

TAF: CYXE 190538Z 1906/2006 11008KT P6SM FEW280 BECMG 1918/1920 10012KT BECMG 2003/2005 11006KT RMK NXT FCST BY 191200Z

超过4000个机场的气象观测和天气预报(METAR&TAF报告)。

可查询的气象台以黄色和红色小点在地图上表示。

将鼠标移到小点上方,可查看气象台名称。

然后点击查看天气观测和预报。

如需切换地图:点击带黑十字的绿色按钮放大地图;点击带横线的绿色按钮缩小地图;或者点击绿色箭头查看邻近地区的地图。


METAR-TAF: